createdAt,value
2023-02-22T00:02:10.714Z,4.56
2023-02-22T00:07:14.977Z,4.42
2023-02-22T00:12:16.591Z,4.38
2023-02-22T00:17:20.593Z,4.53
2023-02-22T00:22:22.365Z,4.63
2023-02-22T00:27:24.119Z,4.62
2023-02-22T00:32:25.919Z,4.68
2023-02-22T00:37:31.793Z,4.62
2023-02-22T00:42:33.445Z,4.63
2023-02-22T00:47:35.399Z,4.66
2023-02-22T00:52:37.579Z,4.67
2023-02-22T00:57:40.284Z,4.71
2023-02-22T01:02:43.393Z,4.74
2023-02-22T01:07:45.808Z,4.75
2023-02-22T01:12:48.175Z,4.75
2023-02-22T01:17:53.694Z,4.72
2023-02-22T01:22:58.322Z,4.71
2023-02-22T01:28:02.225Z,4.65
2023-02-22T01:33:06.223Z,4.64
2023-02-22T01:38:09.200Z,4.64
2023-02-22T01:43:23.062Z,4.61
2023-02-22T01:48:36.363Z,4.62
2023-02-22T01:53:47.870Z,4.61
2023-02-22T01:58:54.298Z,4.61
2023-02-22T02:03:59.976Z,4.59
2023-02-22T02:09:31.865Z,4.56
2023-02-22T02:14:40.512Z,4.62
2023-02-22T02:19:48.549Z,4.65
2023-02-22T02:24:53.754Z,4.62
2023-02-22T02:30:35.930Z,4.50
2023-02-22T02:35:46.952Z,4.42
2023-02-22T02:41:03.052Z,4.44
2023-02-22T02:46:04.851Z,4.56
2023-02-22T02:51:11.521Z,4.66
2023-02-22T02:56:13.337Z,4.68
2023-02-22T03:01:38.172Z,4.67
2023-02-22T03:06:59.573Z,4.68
2023-02-22T03:12:22.713Z,4.60
2023-02-22T03:17:37.811Z,4.65
2023-02-22T03:23:17.615Z,4.55
2023-02-22T03:28:28.082Z,4.58
2023-02-22T03:33:52.223Z,4.54
2023-02-22T03:38:55.826Z,4.61
2023-02-22T03:44:09.470Z,4.59
2023-02-22T03:49:42.922Z,4.57
2023-02-22T03:54:44.776Z,4.61
2023-02-22T03:59:47.134Z,4.68
2023-02-22T04:04:48.929Z,4.66
2023-02-22T04:09:50.940Z,4.63
2023-02-22T04:14:52.623Z,4.64
2023-02-22T04:19:54.324Z,4.49
2023-02-22T04:24:56.133Z,4.37
2023-02-22T04:29:57.940Z,4.43
2023-02-22T04:34:59.696Z,4.51
2023-02-22T04:40:02.630Z,4.57
2023-02-22T04:45:05.844Z,4.51
2023-02-22T04:50:11.758Z,4.53
2023-02-22T04:55:13.484Z,4.55
2023-02-22T05:00:21.827Z,4.60
2023-02-22T05:05:23.967Z,4.61
2023-02-22T05:10:25.681Z,4.64
2023-02-22T05:15:27.351Z,4.60
2023-02-22T05:20:31.712Z,4.56
2023-02-22T05:25:33.847Z,4.64
2023-02-22T05:30:39.801Z,4.67
2023-02-22T05:35:41.548Z,4.65
2023-02-22T05:40:43.343Z,4.58
2023-02-22T05:45:45.145Z,4.57
2023-02-22T05:50:47.336Z,4.63
2023-02-22T05:55:48.981Z,4.62
2023-02-22T06:00:50.688Z,4.48
2023-02-22T06:05:52.510Z,4.33
2023-02-22T06:10:54.577Z,4.21
2023-02-22T06:15:56.299Z,4.01
2023-02-22T06:20:59.263Z,4.30
2023-02-22T06:26:00.970Z,4.43
2023-02-22T06:31:02.737Z,4.49
2023-02-22T06:36:05.419Z,4.45
2023-02-22T06:41:08.948Z,4.45
2023-02-22T06:46:11.384Z,4.49
2023-02-22T06:51:13.223Z,4.41
2023-02-22T06:56:14.892Z,4.43
2023-02-22T07:01:17.059Z,4.50
2023-02-22T07:06:18.961Z,4.26
2023-02-22T07:11:20.762Z,4.38
2023-02-22T07:16:22.576Z,4.29
2023-02-22T07:21:24.846Z,4.55
2023-02-22T07:26:27.652Z,4.75
2023-02-22T07:31:29.789Z,4.93
2023-02-22T07:36:31.444Z,4.95
2023-02-22T07:41:33.142Z,4.96
2023-02-22T07:46:34.954Z,4.89
2023-02-22T07:51:36.699Z,4.87
2023-02-22T07:56:44.877Z,4.65
2023-02-22T08:01:49.988Z,4.91
2023-02-22T08:06:51.764Z,4.98
2023-02-22T08:11:54.580Z,5.19
2023-02-22T08:16:56.327Z,5.18
2023-02-22T08:21:59.099Z,5.12
2023-02-22T08:27:04.818Z,5.05
2023-02-22T08:32:07.663Z,4.88
2023-02-22T08:37:09.660Z,4.99
2023-02-22T08:42:11.922Z,4.94
2023-02-22T08:47:17.784Z,4.86
2023-02-22T08:52:28.719Z,5.04
2023-02-22T08:57:31.998Z,4.99
2023-02-22T09:02:37.425Z,4.94
2023-02-22T09:07:42.601Z,4.94
2023-02-22T09:12:44.405Z,5.21
2023-02-22T09:17:46.338Z,5.25
2023-02-22T09:23:35.613Z,5.17
2023-02-22T09:28:37.405Z,5.52
2023-02-22T09:33:41.041Z,5.62
2023-02-22T09:38:42.846Z,5.52
2023-02-22T09:44:07.099Z,5.62
2023-02-22T09:49:38.226Z,5.77
2023-02-22T09:54:43.584Z,5.66
2023-02-22T10:00:13.272Z,5.75
2023-02-22T10:05:33.887Z,6.03
2023-02-22T10:10:41.907Z,5.83
2023-02-22T10:16:02.106Z,5.74
2023-02-22T10:21:21.924Z,5.85
2023-02-22T10:26:32.253Z,5.95
2023-02-22T10:31:40.927Z,6.16
2023-02-22T10:36:46.641Z,6.20
2023-02-22T10:41:54.035Z,6.32
2023-02-22T10:46:55.829Z,6.71
2023-02-22T10:52:02.321Z,6.81
2023-02-22T10:57:04.353Z,6.77
2023-02-22T11:02:23.558Z,7.03
2023-02-22T11:07:27.328Z,7.02
2023-02-22T11:12:37.777Z,7.34
2023-02-22T11:17:41.175Z,7.37
2023-02-22T11:22:43.354Z,7.49
2023-02-22T11:27:47.111Z,7.90
2023-02-22T11:32:53.544Z,8.10
2023-02-22T11:38:26.907Z,8.28
2023-02-22T11:43:28.703Z,8.01
2023-02-22T11:48:36.875Z,8.18
2023-02-22T11:54:03.913Z,8.58
2023-02-22T11:59:41.687Z,8.43
2023-02-22T12:04:54.664Z,8.71
2023-02-22T12:10:14.861Z,8.66
2023-02-22T12:15:31.659Z,8.69
2023-02-22T12:20:56.779Z,8.93
2023-02-22T12:26:25.831Z,8.93
2023-02-22T12:31:34.195Z,9.03
2023-02-22T12:36:47.937Z,9.05
2023-02-22T12:41:55.783Z,9.25
2023-02-22T12:47:00.625Z,9.22
2023-02-22T12:52:27.632Z,9.10
2023-02-22T12:57:30.321Z,9.45
2023-02-22T13:02:35.352Z,9.32
2023-02-22T13:08:05.738Z,9.42
2023-02-22T13:13:16.394Z,9.56
2023-02-22T13:18:35.332Z,9.66
2023-02-22T13:23:54.733Z,9.53
2023-02-22T13:29:13.884Z,9.54
2023-02-22T13:35:29.859Z,9.65
2023-02-22T13:40:42.108Z,9.84
2023-02-22T13:46:02.321Z,10.17
2023-02-22T13:51:15.821Z,10.16
2023-02-22T13:56:19.532Z,10.19
2023-02-22T14:01:40.956Z,10.09
2023-02-22T14:06:43.174Z,10.17
2023-02-22T14:11:47.721Z,10.23
2023-02-22T14:17:27.713Z,10.37
2023-02-22T14:22:30.491Z,10.45
2023-02-22T14:27:42.147Z,10.51
2023-02-22T14:32:43.936Z,10.54
2023-02-22T14:37:54.288Z,10.72
2023-02-22T14:42:58.960Z,10.87
2023-02-22T14:48:13.687Z,11.14
2023-02-22T14:53:25.426Z,11.46
2023-02-22T14:58:39.944Z,11.58
2023-02-22T15:03:41.989Z,11.64
2023-02-22T15:08:48.951Z,11.59
2023-02-22T15:13:54.957Z,11.66
2023-02-22T15:18:59.974Z,11.51
2023-02-22T15:24:04.817Z,11.32
2023-02-22T15:29:20.426Z,11.18
2023-02-22T15:34:30.076Z,11.19
2023-02-22T15:39:34.589Z,11.21
2023-02-22T15:44:43.260Z,11.23
2023-02-22T15:49:45.009Z,11.24
2023-02-22T15:54:50.611Z,11.27
2023-02-22T15:59:55.932Z,11.12
2023-02-22T16:05:03.226Z,11.01
2023-02-22T16:10:09.389Z,10.95
2023-02-22T16:15:20.455Z,10.76
2023-02-22T16:20:27.419Z,10.59
2023-02-22T16:25:35.756Z,10.50
2023-02-22T16:30:40.122Z,10.39
2023-02-22T16:35:52.096Z,10.30
2023-02-22T16:40:56.289Z,10.23
2023-02-22T16:46:03.480Z,10.06
2023-02-22T16:51:40.687Z,9.83
2023-02-22T16:56:42.540Z,9.73
2023-02-22T17:01:44.318Z,9.65
2023-02-22T17:06:46.328Z,9.54
2023-02-22T17:11:51.538Z,9.43
2023-02-22T17:16:54.481Z,9.34
2023-02-22T17:21:56.314Z,9.28
2023-02-22T17:26:59.361Z,9.20
2023-02-22T17:32:03.522Z,9.17
2023-02-22T17:37:06.493Z,9.13
2023-02-22T17:42:08.289Z,9.13
2023-02-22T17:47:11.091Z,9.06
2023-02-22T17:52:16.014Z,9.02
2023-02-22T17:57:17.718Z,9.02
2023-02-22T18:02:19.486Z,9.06
2023-02-22T18:07:22.274Z,9.03
2023-02-22T18:12:24.317Z,9.03
2023-02-22T18:17:26.030Z,8.96
2023-02-22T18:22:27.726Z,8.89
2023-02-22T18:27:30.215Z,8.82
2023-02-22T18:32:32.121Z,8.80
2023-02-22T18:37:34.537Z,8.75
2023-02-22T18:42:38.608Z,8.67
2023-02-22T18:47:43.625Z,8.65
2023-02-22T18:52:45.999Z,8.61
2023-02-22T18:57:49.499Z,8.55
2023-02-22T19:02:53.763Z,8.47
2023-02-22T19:07:56.505Z,8.42
2023-02-22T19:13:23.403Z,8.30
2023-02-22T19:18:26.145Z,8.24
2023-02-22T19:23:28.463Z,8.16
2023-02-22T19:28:34.276Z,8.08
2023-02-22T19:33:35.983Z,7.92
2023-02-22T19:38:38.304Z,7.83
2023-02-22T19:43:40.156Z,7.76
2023-02-22T19:48:41.817Z,7.64
2023-02-22T19:53:44.766Z,7.61
2023-02-22T19:58:49.997Z,7.52
2023-02-22T20:03:54.491Z,7.55
2023-02-22T20:08:57.206Z,7.56
2023-02-22T20:14:01.099Z,7.54
2023-02-22T20:19:02.854Z,7.53
2023-02-22T20:24:07.834Z,7.55
2023-02-22T20:29:11.092Z,7.56
2023-02-22T20:34:12.945Z,7.54
2023-02-22T20:39:14.786Z,7.53
2023-02-22T20:44:20.196Z,7.53
2023-02-22T20:49:26.511Z,7.56
2023-02-22T20:54:28.318Z,7.52
2023-02-22T20:59:30.493Z,7.50
2023-02-22T21:04:33.486Z,7.52
2023-02-22T21:09:35.377Z,7.60
2023-02-22T21:14:37.854Z,7.65
2023-02-22T21:19:40.080Z,7.66
2023-02-22T21:24:42.116Z,7.67
